Time;durP1;ratioP1;P1;durP2;ratioP2;P2;SDS_P1;SDS_P2;PMS_P1;PMS_P2;Temp;Humidity;BMP_temperature;BMP_pressure;BME280_temperature;BME280_humidity;BME280_pressure;Samples;Min_cycle;Max_cycle;Signal;HPM_P1;HPM_P2
2023/10/17 00:01:32;;;;;;;3.10;1.50;;;;;;;;;;4987129;28;20454;-71
2023/10/17 00:03:58;;;;;;;3.15;1.73;;;;;;;;;;5002829;28;20049;-71
2023/10/17 00:06:24;;;;;;;2.58;1.63;;;;;;;;;;5008904;28;20113;-70
2023/10/17 00:08:53;;;;;;;2.83;1.67;;;;;;;;;;4988397;28;20053;-70
2023/10/17 00:11:18;;;;;;;3.25;1.58;;;;;;;;;;5005471;28;20413;-71
2023/10/17 00:16:48;;;;;;;2.47;1.58;;;;;;;;;;4956353;28;20050;-71
2023/10/17 00:19:16;;;;;;;3.00;1.60;;;;;;;;;;4949937;28;20023;-71
2023/10/17 00:21:41;;;;;;;1.85;1.35;;;;;;;;;;4984360;28;20759;-71
2023/10/17 00:24:10;;;;;;;2.30;1.55;;;;;;;;;;5011230;28;20034;-71
2023/10/17 00:26:36;;;;;;;2.38;1.40;;;;;;;;;;5015977;28;20074;-71
2023/10/17 00:29:05;;;;;;;3.83;1.92;;;;;;;;;;4990772;28;20060;-71
2023/10/17 00:31:30;;;;;;;3.38;2.00;;;;;;;;;;4998693;28;20038;-71
2023/10/17 00:33:57;;;;;;;2.90;1.87;;;;;;;;;;5002628;28;20041;-71
2023/10/17 00:36:23;;;;;;;3.40;1.80;;;;;;;;;;5002751;28;20316;-71
2023/10/17 00:38:48;;;;;;;2.58;1.48;;;;;;;;;;4992704;28;20038;-71
2023/10/17 00:41:27;;;;;;;3.50;1.90;;;;;;;;;;4993825;28;20535;-71
2023/10/17 00:43:53;;;;;;;4.07;2.10;;;;;;;;;;5006382;28;20296;-71
2023/10/17 00:46:19;;;;;;;2.47;1.70;;;;;;;;;;5008581;28;20115;-71
2023/10/17 00:48:47;;;;;;;3.53;1.90;;;;;;;;;;5007803;28;20033;-71
2023/10/17 00:51:17;;;;;;;2.78;1.60;;;;;;;;;;5008415;28;20030;-72
2023/10/17 00:53:42;;;;;;;;;;;;;;;;;;5025581;28;20049;-72
2023/10/17 00:56:08;;;;;;;3.47;1.60;;;;;;;;;;5014690;28;19913;-71
2023/10/17 00:58:34;;;;;;;2.80;1.67;;;;;;;;;;5034062;28;20109;-72
2023/10/17 01:01:09;;;;;;;3.03;1.70;;;;;;;;;;5033116;28;20276;-73
2023/10/17 01:03:35;;;;;;;2.35;1.75;;;;;;;;;;5023775;28;20090;-72
2023/10/17 01:08:44;;;;;;;2.65;1.50;;;;;;;;;;5035649;28;20053;-71
2023/10/17 01:11:14;;;;;;;3.00;1.97;;;;;;;;;;5025840;28;20042;-71
2023/10/17 01:13:39;;;;;;;;;;;;;;;;;;5034508;28;20311;-71
2023/10/17 01:16:10;;;;;;;2.17;1.43;;;;;;;;;;5017085;28;19910;-71
2023/10/17 01:18:35;;;;;;;2.65;1.67;;;;;;;;;;5033818;28;20049;-71
2023/10/17 01:21:01;;;;;;;2.67;1.50;;;;;;;;;;5022114;28;20053;-71
2023/10/17 01:23:29;;;;;;;2.85;1.30;;;;;;;;;;4999804;28;20027;-71
2023/10/17 01:25:56;;;;;;;2.35;1.50;;;;;;;;;;4992393;28;20428;-71
2023/10/17 01:28:21;;;;;;;3.42;1.80;;;;;;;;;;5007969;28;20057;-71
2023/10/17 01:30:47;;;;;;;2.45;1.60;;;;;;;;;;5022576;28;20221;-71
2023/10/17 01:33:12;;;;;;;2.28;1.33;;;;;;;;;;5022420;28;20037;-71
2023/10/17 01:35:40;;;;;;;2.55;1.42;;;;;;;;;;4992999;28;20038;-71
2023/10/17 01:38:08;;;;;;;2.20;1.50;;;;;;;;;;5006653;28;20034;-71
2023/10/17 01:40:33;;;;;;;2.65;1.70;;;;;;;;;;5005876;28;20030;-71
2023/10/17 01:42:58;;;;;;;2.25;1.40;;;;;;;;;;5006300;28;20040;-71
2023/10/17 01:45:25;;;;;;;2.17;1.50;;;;;;;;;;4996012;28;20524;-71
2023/10/17 01:47:51;;;;;;;2.30;1.55;;;;;;;;;;5006928;28;20030;-70
2023/10/17 01:50:18;;;;;;;3.05;1.58;;;;;;;;;;4997499;28;20062;-71
2023/10/17 01:52:44;;;;;;;3.08;1.50;;;;;;;;;;5001468;28;20395;-71
2023/10/17 01:55:10;;;;;;;2.15;1.63;;;;;;;;;;4996660;28;20038;-70
2023/10/17 01:57:40;;;;;;;4.05;1.65;;;;;;;;;;5006182;28;20544;-71
2023/10/17 02:00:08;;;;;;;4.03;1.85;;;;;;;;;;5006065;28;20524;-71
2023/10/17 02:02:34;;;;;;;4.30;1.50;;;;;;;;;;5005653;28;20687;-71
2023/10/17 02:05:02;;;;;;;4.20;1.70;;;;;;;;;;5000033;28;20125;-71
2023/10/17 02:07:27;;;;;;;3.22;1.63;;;;;;;;;;5004878;28;20022;-71
2023/10/17 02:09:55;;;;;;;2.00;1.38;;;;;;;;;;5005996;28;20045;-71
2023/10/17 02:12:21;;;;;;;2.50;1.40;;;;;;;;;;5021165;28;20492;-71
2023/10/17 02:14:46;;;;;;;2.15;1.40;;;;;;;;;;4995693;28;20030;-71
2023/10/17 02:17:15;;;;;;;2.60;1.45;;;;;;;;;;5016224;28;20038;-71
2023/10/17 02:19:40;;;;;;;2.65;1.70;;;;;;;;;;4987824;28;20131;-71
2023/10/17 02:22:09;;;;;;;2.20;1.50;;;;;;;;;;5000503;28;20539;-71
2023/10/17 02:24:35;;;;;;;2.87;1.67;;;;;;;;;;5018961;28;20500;-71
2023/10/17 02:27:01;;;;;;;2.33;1.50;;;;;;;;;;5000712;28;20424;-71
2023/10/17 02:29:26;;;;;;;3.80;1.70;;;;;;;;;;5005964;28;20092;-70
2023/10/17 02:31:55;;;;;;;3.58;1.50;;;;;;;;;;5021092;28;20325;-70
2023/10/17 02:34:23;;;;;;;2.17;1.33;;;;;;;;;;5004148;28;20581;-70
2023/10/17 02:36:49;;;;;;;3.53;1.55;;;;;;;;;;5000665;28;20072;-71
2023/10/17 02:39:14;;;;;;;3.28;1.40;;;;;;;;;;5006695;28;20671;-72
2023/10/17 02:41:45;;;;;;;2.30;1.40;;;;;;;;;;5006541;28;20038;-70
2023/10/17 02:44:11;;;;;;;3.53;1.33;;;;;;;;;;5006343;28;20034;-72
2023/10/17 02:46:37;;;;;;;3.78;1.33;;;;;;;;;;5001307;28;20129;-72
2023/10/17 02:49:07;;;;;;;2.50;1.50;;;;;;;;;;5006342;28;20113;-69
2023/10/17 02:51:33;;;;;;;;;;;;;;;;;;5006101;28;20307;-70
2023/10/17 02:53:59;;;;;;;1.80;1.40;;;;;;;;;;4995773;28;19979;-70
2023/10/17 02:56:25;;;;;;;2.63;1.38;;;;;;;;;;5000940;28;20038;-70
2023/10/17 02:58:51;;;;;;;2.88;1.80;;;;;;;;;;5006591;28;20041;-70
2023/10/17 03:01:19;;;;;;;2.25;1.23;;;;;;;;;;5020881;28;20038;-70
2023/10/17 03:03:49;;;;;;;2.55;1.40;;;;;;;;;;4999152;28;20046;-70
2023/10/17 03:06:16;;;;;;;1.73;1.15;;;;;;;;;;5001981;28;20061;-70
2023/10/17 03:08:42;;;;;;;2.95;1.50;;;;;;;;;;5004360;28;20493;-70
2023/10/17 03:11:16;;;;;;;2.35;1.38;;;;;;;;;;5007002;28;20054;-70
2023/10/17 03:13:43;;;;;;;2.47;1.38;;;;;;;;;;4990634;28;20038;-70
2023/10/17 03:16:25;;;;;;;1.92;1.30;;;;;;;;;;5002307;28;20014;-70
2023/10/17 03:18:50;;;;;;;2.50;1.25;;;;;;;;;;5003305;28;20050;-70
2023/10/17 03:21:20;;;;;;;2.63;1.30;;;;;;;;;;4999918;28;20376;-70
2023/10/17 03:24:10;;;;;;;2.30;1.48;;;;;;;;;;5004557;28;20045;-71
2023/10/17 03:26:42;;;;;;;2.67;1.55;;;;;;;;;;5004028;28;20057;-71
2023/10/17 03:29:13;;;;;;;2.90;1.40;;;;;;;;;;5004817;28;20117;-70
2023/10/17 03:31:38;;;;;;;3.40;1.40;;;;;;;;;;5006057;28;20420;-70
2023/10/17 03:34:05;;;;;;;3.37;1.37;;;;;;;;;;5018160;28;20038;-70
2023/10/17 03:39:21;;;;;;;3.28;1.40;;;;;;;;;;5005652;28;20026;-70
2023/10/17 03:41:56;;;;;;;2.38;1.30;;;;;;;;;;5027722;28;20045;-70
2023/10/17 03:44:28;;;;;;;2.03;1.30;;;;;;;;;;5001498;28;20026;-70
2023/10/17 03:46:54;;;;;;;3.65;1.27;;;;;;;;;;4992886;28;20046;-70
2023/10/17 03:49:19;;;;;;;2.67;1.40;;;;;;;;;;5004292;28;20033;-70
2023/10/17 03:51:52;;;;;;;2.27;1.63;;;;;;;;;;5003985;28;20057;-74
2023/10/17 03:54:18;;;;;;;4.10;1.38;;;;;;;;;;4994718;28;20289;-69
2023/10/17 03:56:47;;;;;;;1.92;1.30;;;;;;;;;;4994919;28;22063;-71
2023/10/17 04:01:41;;;;;;;2.00;1.15;;;;;;;;;;5006647;28;20050;-72
2023/10/17 04:04:07;;;;;;;2.03;1.30;;;;;;;;;;4994010;28;20113;-72
2023/10/17 04:06:39;;;;;;;2.38;1.50;;;;;;;;;;4995446;28;20497;-76
2023/10/17 04:09:22;;;;;;;1.73;1.10;;;;;;;;;;4994109;28;20129;-75
2023/10/17 04:11:53;;;;;;;2.72;1.40;;;;;;;;;;5015194;28;20058;-73
2023/10/17 04:14:20;;;;;;;2.22;1.33;;;;;;;;;;4995373;28;20096;-73
2023/10/17 04:16:46;;;;;;;2.95;1.30;;;;;;;;;;4998084;28;20053;-73
2023/10/17 04:19:18;;;;;;;1.80;1.40;;;;;;;;;;4996373;28;20113;-74
2023/10/17 04:21:51;;;;;;;2.47;1.10;;;;;;;;;;4996849;28;20037;-73
2023/10/17 04:24:34;;;;;;;2.40;1.30;;;;;;;;;;4997867;28;20120;-73
2023/10/17 04:27:06;;;;;;;2.25;1.27;;;;;;;;;;4999017;28;20682;-68
2023/10/17 04:29:32;;;;;;;2.35;1.20;;;;;;;;;;4999182;28;20049;-69
2023/10/17 04:31:57;;;;;;;3.05;1.20;;;;;;;;;;4996162;28;20134;-69
2023/10/17 04:34:22;;;;;;;2.10;1.17;;;;;;;;;;4998294;28;20054;-69
2023/10/17 04:36:51;;;;;;;2.15;1.33;;;;;;;;;;4995747;28;20320;-68
2023/10/17 04:39:25;;;;;;;3.15;1.55;;;;;;;;;;4994797;28;20072;-70
2023/10/17 04:44:20;;;;;;;1.92;1.23;;;;;;;;;;4995616;28;20030;-69
2023/10/17 04:49:35;;;;;;;1.95;1.30;;;;;;;;;;4996649;28;20053;-69
2023/10/17 04:52:06;;;;;;;2.40;1.02;;;;;;;;;;4994809;28;20589;-70
2023/10/17 04:54:39;;;;;;;2.00;1.48;;;;;;;;;;4995055;28;20113;-68
2023/10/17 04:57:05;;;;;;;3.10;1.55;;;;;;;;;;4994432;28;20038;-68
2023/10/17 05:08:11;;;;;;;2.58;1.20;;;;;;;;;;4997453;28;20040;-69
2023/10/17 06:18:26;;;;;;;3.17;1.35;;;;;;;;;;4993917;28;20053;-68
2023/10/17 06:21:35;;;;;;;3.28;1.48;;;;;;;;;;4993206;28;20057;-69
2023/10/17 06:28:48;;;;;;;3.72;1.58;;;;;;;;;;4992865;28;20065;-69
2023/10/17 06:34:00;;;;;;;3.08;1.27;;;;;;;;;;4996254;28;20034;-71
2023/10/17 06:36:28;;;;;;;3.47;1.20;;;;;;;;;;5017273;28;20061;-71
2023/10/17 06:38:54;;;;;;;2.97;1.30;;;;;;;;;;5019724;28;20050;-73
2023/10/17 06:41:38;;;;;;;2.30;1.38;;;;;;;;;;5029342;28;20030;-73
2023/10/17 06:44:08;;;;;;;5.70;1.42;;;;;;;;;;5041642;28;20045;-71
2023/10/17 06:46:40;;;;;;;;;;;;;;;;;;5024690;28;20176;-70
2023/10/17 06:49:09;;;;;;;4.03;1.27;;;;;;;;;;5025902;28;19909;-71
2023/10/17 06:51:36;;;;;;;3.90;1.33;;;;;;;;;;5027140;28;20038;-69
2023/10/17 06:54:07;;;;;;;2.97;1.50;;;;;;;;;;5028112;28;20049;-72
2023/10/17 06:56:38;;;;;;;2.42;1.30;;;;;;;;;;5030158;28;20057;-71
2023/10/17 06:59:24;;;;;;;3.97;1.77;;;;;;;;;;5019347;28;20037;-70
2023/10/17 07:02:15;;;;;;;2.83;1.30;;;;;;;;;;5039719;28;20285;-72
2023/10/17 07:04:42;;;;;;;2.10;1.30;;;;;;;;;;5022081;28;20025;-71
2023/10/17 07:07:11;;;;;;;3.40;1.30;;;;;;;;;;5023772;28;20038;-71
2023/10/17 07:09:39;;;;;;;3.45;1.63;;;;;;;;;;5024017;28;20075;-71
2023/10/17 07:12:05;;;;;;;2.65;1.10;;;;;;;;;;5028002;28;20057;-71
2023/10/17 07:14:30;;;;;;;4.95;1.70;;;;;;;;;;5046898;28;20086;-71
2023/10/17 07:17:00;;;;;;;4.57;1.85;;;;;;;;;;5028928;28;20026;-73
2023/10/17 07:22:08;;;;;;;6.95;1.38;;;;;;;;;;5025194;28;20037;-71
2023/10/17 07:24:37;;;;;;;2.55;1.52;;;;;;;;;;5029410;28;20030;-71
2023/10/17 07:27:11;;;;;;;3.22;1.55;;;;;;;;;;5036265;28;20029;-70
2023/10/17 07:29:45;;;;;;;2.75;1.42;;;;;;;;;;5018901;28;20034;-72
2023/10/17 07:32:25;;;;;;;4.55;1.40;;;;;;;;;;5016010;28;20037;-72
2023/10/17 07:34:52;;;;;;;2.67;1.40;;;;;;;;;;5029065;28;20022;-71
2023/10/17 07:42:42;;;;;;;3.25;1.60;;;;;;;;;;5017667;28;20044;-70
2023/10/17 07:45:17;;;;;;;2.70;1.35;;;;;;;;;;5026024;28;20725;-70
2023/10/17 07:47:43;;;;;;;3.35;1.48;;;;;;;;;;5041431;28;20036;-70
2023/10/17 07:50:12;;;;;;;2.95;1.50;;;;;;;;;;5020316;28;20030;-71
2023/10/17 07:52:47;;;;;;;3.08;1.67;;;;;;;;;;5017510;28;20081;-73
2023/10/17 07:57:55;;;;;;;2.67;1.38;;;;;;;;;;5022129;28;20042;-72
2023/10/17 08:00:26;;;;;;;3.22;1.15;;;;;;;;;;5015993;28;20050;-72
2023/10/17 08:02:52;;;;;;;2.90;1.27;;;;;;;;;;5029479;28;20034;-72
2023/10/17 08:05:23;;;;;;;4.25;1.40;;;;;;;;;;4999877;28;20550;-73
2023/10/17 08:07:49;;;;;;;3.22;1.30;;;;;;;;;;5009477;28;20432;-74
2023/10/17 08:10:29;;;;;;;3.30;1.20;;;;;;;;;;4996732;28;20041;-73
2023/10/17 08:12:55;;;;;;;4.30;1.35;;;;;;;;;;4994511;28;20101;-73
2023/10/17 08:15:22;;;;;;;2.10;1.02;;;;;;;;;;4994641;28;20602;-72
2023/10/17 08:17:49;;;;;;;2.42;1.30;;;;;;;;;;4998838;28;20106;-73
2023/10/17 08:22:55;;;;;;;3.85;1.23;;;;;;;;;;5011587;28;20080;-73
2023/10/17 08:25:26;;;;;;;3.55;1.48;;;;;;;;;;5003360;28;20045;-71
2023/10/17 08:27:54;;;;;;;2.60;1.40;;;;;;;;;;4999497;28;20076;-70
2023/10/17 08:30:27;;;;;;;3.80;1.35;;;;;;;;;;4992736;28;20248;-71
2023/10/17 08:33:09;;;;;;;2.95;1.35;;;;;;;;;;5007647;28;20029;-71
2023/10/17 08:35:38;;;;;;;2.17;1.42;;;;;;;;;;4978936;28;20040;-71
2023/10/17 08:38:07;;;;;;;2.70;1.40;;;;;;;;;;4995480;28;20026;-71
2023/10/17 08:40:40;;;;;;;2.70;1.40;;;;;;;;;;4992970;28;20031;-70
2023/10/17 08:43:15;;;;;;;3.47;1.50;;;;;;;;;;4993155;28;20435;-71
2023/10/17 08:45:41;;;;;;;3.17;1.63;;;;;;;;;;4992599;28;20582;-73
2023/10/17 08:48:08;;;;;;;2.67;1.50;;;;;;;;;;5000632;28;20068;-69
2023/10/17 08:50:37;;;;;;;3.40;1.42;;;;;;;;;;4998400;28;20065;-71
2023/10/17 08:53:06;;;;;;;3.20;1.20;;;;;;;;;;4995200;28;20120;-71
2023/10/17 08:55:31;;;;;;;2.35;1.50;;;;;;;;;;5000024;28;20034;-71
2023/10/17 08:57:59;;;;;;;2.30;1.20;;;;;;;;;;5009351;28;20479;-71
2023/10/17 09:00:49;;;;;;;3.42;1.33;;;;;;;;;;4999498;28;20331;-71
2023/10/17 09:03:28;;;;;;;4.18;1.35;;;;;;;;;;4995194;28;20076;-70
2023/10/17 09:05:58;;;;;;;3.47;1.48;;;;;;;;;;4998552;28;20038;-71
2023/10/17 09:11:29;;;;;;;3.85;1.50;;;;;;;;;;4997284;28;20056;-69
2023/10/17 09:16:41;;;;;;;3.28;1.38;;;;;;;;;;4998802;28;21922;-71
2023/10/17 09:19:10;;;;;;;3.13;1.38;;;;;;;;;;5000268;28;20045;-71
2023/10/17 09:21:35;;;;;;;2.63;1.10;;;;;;;;;;5000302;28;20132;-72
2023/10/17 09:24:00;;;;;;;2.25;1.35;;;;;;;;;;4997589;28;20393;-72
2023/10/17 09:26:25;;;;;;;3.47;1.40;;;;;;;;;;5001915;28;20121;-72
2023/10/17 09:28:52;;;;;;;3.70;1.00;;;;;;;;;;4996037;28;20683;-72
2023/10/17 09:31:20;;;;;;;1.95;1.20;;;;;;;;;;4997952;28;20281;-72
2023/10/17 09:33:45;;;;;;;3.53;1.33;;;;;;;;;;4998261;28;20065;-70
2023/10/17 09:36:17;;;;;;;3.83;1.30;;;;;;;;;;4999806;28;20046;-72
2023/10/17 09:38:45;;;;;;;2.25;1.08;;;;;;;;;;4998727;28;20031;-72
2023/10/17 09:41:11;;;;;;;4.28;1.50;;;;;;;;;;5002188;28;20122;-72
2023/10/17 09:43:37;;;;;;;2.60;1.40;;;;;;;;;;5033392;22;20061;-56
2023/10/17 09:46:02;;;;;;;3.05;1.05;;;;;;;;;;5010936;28;20069;-56
2023/10/17 09:48:37;;;;;;;2.47;1.33;;;;;;;;;;5014758;28;20497;-56
2023/10/17 09:51:03;;;;;;;4.35;1.60;;;;;;;;;;5015033;28;20046;-56
2023/10/17 09:53:32;;;;;;;3.05;1.27;;;;;;;;;;5014914;28;20088;-56
2023/10/17 09:56:06;;;;;;;2.90;1.40;;;;;;;;;;5021197;28;20120;-55
2023/10/17 09:58:37;;;;;;;2.53;1.20;;;;;;;;;;5018076;28;20038;-56
2023/10/17 10:01:23;;;;;;;3.85;1.30;;;;;;;;;;5014896;28;20080;-57
2023/10/17 10:03:51;;;;;;;2.80;1.05;;;;;;;;;;5032297;23;20505;-60
2023/10/17 10:06:27;;;;;;;2.90;1.23;;;;;;;;;;4997169;28;20533;-59
2023/10/17 10:08:54;;;;;;;3.40;1.45;;;;;;;;;;4998589;28;20125;-57
2023/10/17 10:11:19;;;;;;;2.97;1.08;;;;;;;;;;5005526;28;20050;-59
2023/10/17 10:14:03;;;;;;;2.85;1.42;;;;;;;;;;5007522;28;20112;-59
2023/10/17 10:16:53;;;;;;;2.13;1.20;;;;;;;;;;5001587;28;20046;-59
2023/10/17 10:19:18;;;;;;;3.40;1.23;;;;;;;;;;5002415;28;20042;-57
2023/10/17 10:21:59;;;;;;;3.00;1.15;;;;;;;;;;5000020;28;20045;-57
2023/10/17 10:24:31;;;;;;;1.85;1.10;;;;;;;;;;4987554;28;20066;-60
2023/10/17 10:27:14;;;;;;;2.03;1.00;;;;;;;;;;4992120;28;20572;-59
2023/10/17 10:29:39;;;;;;;2.00;1.00;;;;;;;;;;5006944;28;20046;-59
2023/10/17 10:32:08;;;;;;;2.40;1.00;;;;;;;;;;4999095;28;20054;-58
2023/10/17 10:34:36;;;;;;;1.88;1.10;;;;;;;;;;4987364;28;20575;-57
2023/10/17 10:37:03;;;;;;;2.00;1.27;;;;;;;;;;4992420;28;20034;-58
2023/10/17 10:39:30;;;;;;;2.22;1.30;;;;;;;;;;5006329;28;20518;-58
2023/10/17 10:41:56;;;;;;;2.38;0.95;;;;;;;;;;4999516;28;20057;-59
2023/10/17 10:44:21;;;;;;;2.72;1.50;;;;;;;;;;4987408;28;20048;-58
2023/10/17 10:46:46;;;;;;;3.83;1.42;;;;;;;;;;4990648;28;20432;-58
2023/10/17 10:49:11;;;;;;;1.73;1.20;;;;;;;;;;5006483;28;20053;-58
2023/10/17 10:51:37;;;;;;;3.37;1.30;;;;;;;;;;5003794;28;20776;-59
2023/10/17 10:54:02;;;;;;;2.87;1.10;;;;;;;;;;5002257;28;20273;-58
2023/10/17 10:56:27;;;;;;;2.38;1.27;;;;;;;;;;4986868;28;20280;-59
2023/10/17 10:58:55;;;;;;;2.75;1.80;;;;;;;;;;4986722;28;20045;-59
2023/10/17 11:01:23;;;;;;;1.85;1.10;;;;;;;;;;4986510;28;20061;-58
2023/10/17 11:03:49;;;;;;;2.55;0.98;;;;;;;;;;4985842;28;20101;-59
2023/10/17 11:06:14;;;;;;;2.28;1.00;;;;;;;;;;5006083;28;20045;-58
2023/10/17 11:08:43;;;;;;;1.90;1.10;;;;;;;;;;5005545;28;20536;-58
2023/10/17 11:11:13;;;;;;;2.60;1.10;;;;;;;;;;5006164;28;20088;-59
2023/10/17 11:13:45;;;;;;;2.75;1.33;;;;;;;;;;5006560;28;20073;-58
2023/10/17 11:16:10;;;;;;;2.70;1.17;;;;;;;;;;5005925;28;20038;-58
2023/10/17 11:18:38;;;;;;;3.50;1.25;;;;;;;;;;4998278;28;20528;-59
2023/10/17 11:21:04;;;;;;;2.47;1.10;;;;;;;;;;4993557;28;20049;-58
2023/10/17 11:23:30;;;;;;;2.38;1.10;;;;;;;;;;4985710;28;20064;-58
2023/10/17 11:25:57;;;;;;;1.80;0.88;;;;;;;;;;4984834;28;20515;-59
2023/10/17 11:28:22;;;;;;;1.65;0.85;;;;;;;;;;4986181;28;20462;-58
2023/10/17 11:30:48;;;;;;;1.85;1.00;;;;;;;;;;5001490;28;20027;-59
2023/10/17 11:33:16;;;;;;;1.80;1.00;;;;;;;;;;4986692;28;20038;-59
2023/10/17 11:35:48;;;;;;;2.90;1.10;;;;;;;;;;4986169;28;20040;-58
2023/10/17 11:38:43;;;;;;;1.98;0.90;;;;;;;;;;4998782;28;20088;-59
2023/10/17 11:41:08;;;;;;;1.75;0.90;;;;;;;;;;4990978;28;20057;-58
2023/10/17 11:43:37;;;;;;;1.55;0.90;;;;;;;;;;5005483;28;20491;-58
2023/10/17 11:46:03;;;;;;;1.35;0.82;;;;;;;;;;5005227;28;20426;-59
2023/10/17 11:48:32;;;;;;;1.35;1.00;;;;;;;;;;5005586;28;20502;-58
2023/10/17 11:51:14;;;;;;;2.78;0.95;;;;;;;;;;5001761;28;20478;-59
2023/10/17 11:53:57;;;;;;;1.92;1.10;;;;;;;;;;5001454;28;20721;-59
2023/10/17 11:56:23;;;;;;;2.10;1.10;;;;;;;;;;4988640;28;20049;-58
2023/10/17 11:58:51;;;;;;;2.27;1.20;;;;;;;;;;4985881;28;20382;-58
2023/10/17 12:01:16;;;;;;;1.33;0.85;;;;;;;;;;4986149;28;20706;-58
2023/10/17 12:03:42;;;;;;;2.10;1.13;;;;;;;;;;4986483;28;20081;-59
2023/10/17 12:06:16;;;;;;;2.17;1.00;;;;;;;;;;4985693;28;20277;-59
2023/10/17 12:08:43;;;;;;;2.08;1.30;;;;;;;;;;5000903;28;20702;-58
2023/10/17 12:11:08;;;;;;;2.65;1.08;;;;;;;;;;5005405;28;20085;-58
2023/10/17 12:13:34;;;;;;;2.63;1.38;;;;;;;;;;4990065;28;20388;-59
2023/10/17 12:16:02;;;;;;;2.15;1.20;;;;;;;;;;4984405;28;20061;-58
2023/10/17 12:18:27;;;;;;;1.75;1.10;;;;;;;;;;4995437;28;20430;-58
2023/10/17 12:20:55;;;;;;;2.00;1.20;;;;;;;;;;5003848;28;20050;-58
2023/10/17 12:23:20;;;;;;;2.83;1.02;;;;;;;;;;5005404;28;20034;-59
2023/10/17 12:25:46;;;;;;;1.98;1.20;;;;;;;;;;5009856;28;21084;-59
2023/10/17 12:28:11;;;;;;;2.40;1.30;;;;;;;;;;4998928;28;20034;-58
2023/10/17 12:30:36;;;;;;;2.67;1.40;;;;;;;;;;4989549;28;20746;-59
2023/10/17 12:33:02;;;;;;;2.17;1.10;;;;;;;;;;4988235;28;20304;-59
2023/10/17 12:35:28;;;;;;;2.42;1.00;;;;;;;;;;4994592;28;20030;-58
2023/10/17 12:37:57;;;;;;;3.97;1.27;;;;;;;;;;5000949;28;20056;-58
2023/10/17 12:40:22;;;;;;;2.35;1.20;;;;;;;;;;4999818;28;20042;-59
2023/10/17 12:42:48;;;;;;;2.58;1.25;;;;;;;;;;5003133;28;20107;-59
2023/10/17 12:45:14;;;;;;;1.98;1.00;;;;;;;;;;5003065;28;20092;-58
2023/10/17 12:47:40;;;;;;;2.95;1.02;;;;;;;;;;5007555;28;20042;-58
2023/10/17 12:50:06;;;;;;;3.35;1.40;;;;;;;;;;4998046;28;20596;-58
2023/10/17 12:52:31;;;;;;;3.90;1.30;;;;;;;;;;5001556;28;20050;-59
2023/10/17 12:54:56;;;;;;;2.87;1.33;;;;;;;;;;4992437;28;20042;-58
2023/10/17 12:57:22;;;;;;;2.40;1.50;;;;;;;;;;5007461;28;20772;-59
2023/10/17 12:59:48;;;;;;;3.88;1.30;;;;;;;;;;5007471;28;20042;-59
2023/10/17 13:02:13;;;;;;;2.17;1.15;;;;;;;;;;4992075;28;20038;-59
2023/10/17 13:04:40;;;;;;;2.50;1.17;;;;;;;;;;4992758;28;20042;-59
2023/10/17 13:07:05;;;;;;;2.50;1.10;;;;;;;;;;4993036;28;20041;-59
2023/10/17 13:09:32;;;;;;;3.45;1.08;;;;;;;;;;4992195;28;20042;-58
2023/10/17 13:11:57;;;;;;;2.17;1.00;;;;;;;;;;4994003;28;20135;-58
2023/10/17 13:14:22;;;;;;;2.08;1.23;;;;;;;;;;4992956;28;20460;-58
2023/10/17 13:16:48;;;;;;;1.95;1.05;;;;;;;;;;4993112;28;20108;-58
2023/10/17 13:19:16;;;;;;;3.33;1.33;;;;;;;;;;4993677;28;20045;-59
2023/10/17 13:21:44;;;;;;;5.43;1.33;;;;;;;;;;4993266;28;20440;-58
2023/10/17 13:24:09;;;;;;;2.35;1.10;;;;;;;;;;4993175;28;20561;-58
2023/10/17 13:26:37;;;;;;;3.03;1.17;;;;;;;;;;4994101;28;20046;-59
2023/10/17 13:29:04;;;;;;;2.97;1.10;;;;;;;;;;4993158;28;20038;-58
2023/10/17 13:31:29;;;;;;;5.00;1.02;;;;;;;;;;4994081;28;20104;-58
2023/10/17 13:33:55;;;;;;;2.42;1.20;;;;;;;;;;5007617;28;20630;-59
2023/10/17 13:36:21;;;;;;;3.45;1.38;;;;;;;;;;5000698;28;20453;-58
2023/10/17 13:38:47;;;;;;;3.70;1.35;;;;;;;;;;5002919;28;20038;-58
2023/10/17 13:41:15;;;;;;;3.50;1.50;;;;;;;;;;4998019;28;20613;-58
2023/10/17 13:43:41;;;;;;;1.90;1.20;;;;;;;;;;4991703;28;20134;-58
2023/10/17 13:46:09;;;;;;;1.85;1.00;;;;;;;;;;4998096;28;20117;-58
2023/10/17 13:48:36;;;;;;;3.80;1.33;;;;;;;;;;5012920;28;20481;-58
2023/10/17 13:51:06;;;;;;;2.72;1.40;;;;;;;;;;4998053;28;20065;-59
2023/10/17 13:53:31;;;;;;;2.55;1.40;;;;;;;;;;5021805;28;20095;-58
2023/10/17 13:55:56;;;;;;;4.33;1.80;;;;;;;;;;5005574;28;20027;-58
2023/10/17 13:58:22;;;;;;;3.70;1.45;;;;;;;;;;5003192;28;20299;-58
2023/10/17 14:01:02;;;;;;;2.75;1.52;;;;;;;;;;5003318;28;20159;-58
2023/10/17 14:03:27;;;;;;;2.47;1.15;;;;;;;;;;4993524;28;20465;-59
2023/10/17 14:05:52;;;;;;;2.42;1.30;;;;;;;;;;4996214;28;20052;-58
2023/10/17 14:08:18;;;;;;;1.92;1.10;;;;;;;;;;4999165;28;20104;-58
2023/10/17 14:10:44;;;;;;;3.92;1.20;;;;;;;;;;4990509;28;20116;-59
2023/10/17 14:13:11;;;;;;;2.97;1.40;;;;;;;;;;4991748;28;20050;-58
2023/10/17 14:15:36;;;;;;;2.72;1.40;;;;;;;;;;4991252;28;20710;-58
2023/10/17 14:18:09;;;;;;;2.78;1.23;;;;;;;;;;4990265;28;20038;-58
2023/10/17 14:20:42;;;;;;;3.20;1.20;;;;;;;;;;4990497;28;20498;-59
2023/10/17 14:23:16;;;;;;;2.33;1.20;;;;;;;;;;4987630;28;20458;-59
2023/10/17 14:28:25;;;;;;;2.90;1.33;;;;;;;;;;5003364;28;20106;-58
2023/10/17 14:30:51;;;;;;;2.95;1.23;;;;;;;;;;4991478;28;20113;-58
2023/10/17 14:33:16;;;;;;;2.58;1.40;;;;;;;;;;4992050;28;20050;-58
2023/10/17 14:35:44;;;;;;;3.05;1.10;;;;;;;;;;4991879;28;20034;-58
2023/10/17 14:38:13;;;;;;;2.25;1.50;;;;;;;;;;4990666;28;20039;-57
2023/10/17 14:40:38;;;;;;;1.73;1.10;;;;;;;;;;4991366;28;20123;-58
2023/10/17 14:43:08;;;;;;;2.78;1.10;;;;;;;;;;4990879;28;20637;-58
2023/10/17 14:45:37;;;;;;;4.35;1.30;;;;;;;;;;4990605;28;20040;-58
2023/10/17 14:48:02;;;;;;;2.63;1.10;;;;;;;;;;4990939;28;20050;-59
2023/10/17 14:50:30;;;;;;;2.13;0.93;;;;;;;;;;4994808;28;20030;-59
2023/10/17 14:52:56;;;;;;;2.15;1.20;;;;;;;;;;4998050;28;20056;-59
2023/10/17 14:55:24;;;;;;;2.25;1.17;;;;;;;;;;5000145;28;20386;-60
2023/10/17 14:58:08;;;;;;;3.80;1.33;;;;;;;;;;4997511;28;20100;-59
2023/10/17 15:00:34;;;;;;;4.63;1.60;;;;;;;;;;4999802;28;20088;-60
2023/10/17 15:02:59;;;;;;;2.55;1.38;;;;;;;;;;5001099;28;20137;-60
2023/10/17 15:05:25;;;;;;;3.45;1.38;;;;;;;;;;4998183;28;20045;-60
2023/10/17 15:07:50;;;;;;;3.30;1.52;;;;;;;;;;4995927;28;20038;-59
2023/10/17 15:10:15;;;;;;;2.95;1.30;;;;;;;;;;4998502;28;20148;-57
2023/10/17 15:12:41;;;;;;;3.17;1.38;;;;;;;;;;4998377;28;20528;-64
2023/10/17 15:15:10;;;;;;;2.20;1.20;;;;;;;;;;4999427;28;20189;-59
2023/10/17 15:17:36;;;;;;;2.90;1.35;;;;;;;;;;4997082;28;20033;-58
2023/10/17 15:20:01;;;;;;;3.03;1.30;;;;;;;;;;4997725;28;20229;-58
2023/10/17 15:22:27;;;;;;;2.67;1.48;;;;;;;;;;4995224;28;20583;-59
2023/10/17 15:24:53;;;;;;;2.20;1.27;;;;;;;;;;4996958;28;21647;-58
2023/10/17 15:27:18;;;;;;;2.78;1.30;;;;;;;;;;4996862;28;20045;-58
2023/10/17 15:29:43;;;;;;;2.37;1.10;;;;;;;;;;4998323;28;20108;-58
2023/10/17 15:32:10;;;;;;;3.33;1.30;;;;;;;;;;4995957;28;20749;-59
2023/10/17 15:34:36;;;;;;;4.03;1.52;;;;;;;;;;4992554;28;20172;-61
2023/10/17 15:37:01;;;;;;;6.65;1.73;;;;;;;;;;4998949;28;20114;-58
2023/10/17 15:39:29;;;;;;;4.97;1.40;;;;;;;;;;5002819;28;20041;-59
2023/10/17 15:41:55;;;;;;;3.05;1.38;;;;;;;;;;5011726;28;20103;-58
2023/10/17 15:44:20;;;;;;;5.60;1.50;;;;;;;;;;4996038;28;20034;-58
2023/10/17 15:46:48;;;;;;;6.22;1.40;;;;;;;;;;4996623;28;20098;-58
2023/10/17 15:49:13;;;;;;;5.93;1.67;;;;;;;;;;4996190;28;20511;-57
2023/10/17 15:51:39;;;;;;;4.25;1.55;;;;;;;;;;4995444;28;20456;-56
2023/10/17 15:54:04;;;;;;;4.20;1.67;;;;;;;;;;4989393;28;20038;-55
2023/10/17 15:56:30;;;;;;;5.15;1.42;;;;;;;;;;5011341;28;20147;-56
2023/10/17 15:58:56;;;;;;;6.40;1.70;;;;;;;;;;4995532;28;20393;-57
2023/10/17 16:01:21;;;;;;;3.50;1.63;;;;;;;;;;5000553;28;20127;-57
2023/10/17 16:03:46;;;;;;;7.25;1.45;;;;;;;;;;5000830;28;20048;-57
2023/10/17 16:06:12;;;;;;;4.07;1.70;;;;;;;;;;4995873;28;20038;-59
2023/10/17 16:08:37;;;;;;;3.65;1.65;;;;;;;;;;4997591;28;20046;-58
2023/10/17 16:11:02;;;;;;;3.40;1.50;;;;;;;;;;4999780;28;20109;-56
2023/10/17 16:13:28;;;;;;;6.00;1.70;;;;;;;;;;4999447;28;20221;-57
2023/10/17 16:15:59;;;;;;;2.73;1.43;;;;;;;;;;4998974;28;20045;-57
2023/10/17 16:18:25;;;;;;;3.50;1.70;;;;;;;;;;4999628;28;20461;-57
2023/10/17 16:20:50;;;;;;;4.85;1.60;;;;;;;;;;4980616;28;20137;-57
2023/10/17 16:23:17;;;;;;;4.22;1.70;;;;;;;;;;4999822;28;20034;-57
2023/10/17 16:25:48;;;;;;;4.00;1.60;;;;;;;;;;4998305;28;20758;-56
2023/10/17 16:28:13;;;;;;;3.35;1.50;;;;;;;;;;4998432;28;20030;-57
2023/10/17 16:30:39;;;;;;;5.50;1.73;;;;;;;;;;5000410;28;20037;-57
2023/10/17 16:33:05;;;;;;;4.20;1.70;;;;;;;;;;5015832;28;20073;-59
2023/10/17 16:35:32;;;;;;;3.40;1.60;;;;;;;;;;4998191;28;20469;-56
2023/10/17 16:37:57;;;;;;;5.35;1.90;;;;;;;;;;4998482;28;20289;-57
2023/10/17 16:40:23;;;;;;;4.10;1.47;;;;;;;;;;4999911;28;20507;-56
2023/10/17 16:42:48;;;;;;;3.58;1.70;;;;;;;;;;4998555;28;20362;-56
2023/10/17 16:45:14;;;;;;;4.38;2.17;;;;;;;;;;4996879;28;20038;-57
2023/10/17 16:47:39;;;;;;;3.65;1.50;;;;;;;;;;4997225;28;20034;-57
2023/10/17 16:50:05;;;;;;;3.33;2.05;;;;;;;;;;4999572;28;20513;-58
2023/10/17 16:52:30;;;;;;;4.15;1.63;;;;;;;;;;4998897;28;20052;-56